sensor_id;sensor_type;location;lat;lon;timestamp;P1;durP1;ratioP1;P2;durP2;ratioP2
26050;SDS011;13825;53.496;10.020;2022-09-27T00:00:14;2.97;;;2.30;;
26050;SDS011;13825;53.496;10.020;2022-09-27T00:02:41;2.40;;;2.20;;
26050;SDS011;13825;53.496;10.020;2022-09-27T00:05:09;2.90;;;2.23;;
26050;SDS011;13825;53.496;10.020;2022-09-27T00:07:36;2.70;;;2.33;;
26050;SDS011;13825;53.496;10.020;2022-09-27T00:10:03;3.20;;;2.00;;
26050;SDS011;13825;53.496;10.020;2022-09-27T00:12:30;3.97;;;2.40;;
26050;SDS011;13825;53.496;10.020;2022-09-27T00:14:58;2.87;;;2.40;;
26050;SDS011;13825;53.496;10.020;2022-09-27T00:17:26;3.37;;;2.40;;
26050;SDS011;13825;53.496;10.020;2022-09-27T00:19:53;3.30;;;2.10;;
26050;SDS011;13825;53.496;10.020;2022-09-27T00:22:21;2.23;;;1.97;;
26050;SDS011;13825;53.496;10.020;2022-09-27T00:24:48;2.60;;;2.30;;
26050;SDS011;13825;53.496;10.020;2022-09-27T00:27:15;2.03;;;1.80;;
26050;SDS011;13825;53.496;10.020;2022-09-27T00:29:42;3.60;;;2.37;;
26050;SDS011;13825;53.496;10.020;2022-09-27T00:32:10;2.57;;;1.80;;
26050;SDS011;13825;53.496;10.020;2022-09-27T00:34:37;6.93;;;1.87;;
26050;SDS011;13825;53.496;10.020;2022-09-27T00:37:04;3.77;;;2.20;;
26050;SDS011;13825;53.496;10.020;2022-09-27T00:39:31;2.63;;;2.43;;
26050;SDS011;13825;53.496;10.020;2022-09-27T00:41:59;2.20;;;2.00;;
26050;SDS011;13825;53.496;10.020;2022-09-27T00:47:28;4.57;;;2.20;;
26050;SDS011;13825;53.496;10.020;2022-09-27T00:49:59;3.17;;;2.20;;
26050;SDS011;13825;53.496;10.020;2022-09-27T00:52:31;2.50;;;2.00;;
26050;SDS011;13825;53.496;10.020;2022-09-27T00:55:08;2.40;;;2.00;;
26050;SDS011;13825;53.496;10.020;2022-09-27T00:57:38;2.13;;;1.93;;
26050;SDS011;13825;53.496;10.020;2022-09-27T01:00:06;2.20;;;2.00;;
26050;SDS011;13825;53.496;10.020;2022-09-27T01:02:37;2.33;;;2.07;;
26050;SDS011;13825;53.496;10.020;2022-09-27T01:05:08;2.20;;;1.90;;
26050;SDS011;13825;53.496;10.020;2022-09-27T01:07:36;2.20;;;1.87;;
26050;SDS011;13825;53.496;10.020;2022-09-27T01:10:03;2.30;;;1.90;;
26050;SDS011;13825;53.496;10.020;2022-09-27T01:12:34;2.90;;;1.80;;
26050;SDS011;13825;53.496;10.020;2022-09-27T01:15:10;3.30;;;2.23;;
26050;SDS011;13825;53.496;10.020;2022-09-27T01:17:46;2.47;;;2.00;;
26050;SDS011;13825;53.496;10.020;2022-09-27T01:20:34;2.30;;;2.10;;
26050;SDS011;13825;53.496;10.020;2022-09-27T01:23:22;2.13;;;1.80;;
26050;SDS011;13825;53.496;10.020;2022-09-27T01:26:04;2.83;;;2.50;;
26050;SDS011;13825;53.496;10.020;2022-09-27T01:28:43;3.23;;;2.60;;
26050;SDS011;13825;53.496;10.020;2022-09-27T01:31:22;2.47;;;2.20;;
26050;SDS011;13825;53.496;10.020;2022-09-27T01:33:55;4.93;;;2.07;;
26050;SDS011;13825;53.496;10.020;2022-09-27T01:36:30;3.07;;;2.13;;
26050;SDS011;13825;53.496;10.020;2022-09-27T01:39:07;2.53;;;2.10;;
26050;SDS011;13825;53.496;10.020;2022-09-27T01:41:44;2.33;;;2.10;;
26050;SDS011;13825;53.496;10.020;2022-09-27T01:44:17;4.07;;;2.40;;
26050;SDS011;13825;53.496;10.020;2022-09-27T01:46:52;6.67;;;2.40;;
26050;SDS011;13825;53.496;10.020;2022-09-27T01:49:22;2.23;;;2.00;;
26050;SDS011;13825;53.496;10.020;2022-09-27T01:51:54;2.10;;;1.90;;
26050;SDS011;13825;53.496;10.020;2022-09-27T01:54:26;2.13;;;1.93;;
26050;SDS011;13825;53.496;10.020;2022-09-27T01:56:59;2.73;;;2.10;;
26050;SDS011;13825;53.496;10.020;2022-09-27T01:59:28;3.40;;;2.40;;
26050;SDS011;13825;53.496;10.020;2022-09-27T02:02:02;2.37;;;1.83;;
26050;SDS011;13825;53.496;10.020;2022-09-27T02:04:32;2.03;;;1.80;;
26050;SDS011;13825;53.496;10.020;2022-09-27T02:07:04;2.57;;;2.20;;
26050;SDS011;13825;53.496;10.020;2022-09-27T02:09:36;2.33;;;2.00;;
26050;SDS011;13825;53.496;10.020;2022-09-27T02:12:08;2.73;;;1.90;;
26050;SDS011;13825;53.496;10.020;2022-09-27T02:14:40;2.40;;;2.07;;
26050;SDS011;13825;53.496;10.020;2022-09-27T02:17:14;2.33;;;2.13;;
26050;SDS011;13825;53.496;10.020;2022-09-27T02:19:51;2.00;;;1.80;;
26050;SDS011;13825;53.496;10.020;2022-09-27T02:22:24;4.90;;;2.10;;
26050;SDS011;13825;53.496;10.020;2022-09-27T02:24:58;3.17;;;2.40;;
26050;SDS011;13825;53.496;10.020;2022-09-27T02:27:30;2.37;;;1.93;;
26050;SDS011;13825;53.496;10.020;2022-09-27T02:30:02;2.63;;;2.20;;
26050;SDS011;13825;53.496;10.020;2022-09-27T02:32:33;2.70;;;2.40;;
26050;SDS011;13825;53.496;10.020;2022-09-27T02:35:04;2.30;;;2.10;;
26050;SDS011;13825;53.496;10.020;2022-09-27T02:37:35;2.70;;;2.03;;
26050;SDS011;13825;53.496;10.020;2022-09-27T02:40:02;3.40;;;2.63;;
26050;SDS011;13825;53.496;10.020;2022-09-27T02:42:29;2.93;;;1.90;;
26050;SDS011;13825;53.496;10.020;2022-09-27T02:44:58;3.27;;;2.57;;
26050;SDS011;13825;53.496;10.020;2022-09-27T02:47:32;2.20;;;2.00;;
26050;SDS011;13825;53.496;10.020;2022-09-27T02:53:14;3.47;;;2.40;;
26050;SDS011;13825;53.496;10.020;2022-09-27T02:55:48;2.23;;;2.00;;
26050;SDS011;13825;53.496;10.020;2022-09-27T02:58:22;3.37;;;2.10;;
26050;SDS011;13825;53.496;10.020;2022-09-27T03:01:00;4.53;;;2.50;;
26050;SDS011;13825;53.496;10.020;2022-09-27T03:03:36;4.17;;;2.40;;
26050;SDS011;13825;53.496;10.020;2022-09-27T03:06:08;2.97;;;2.67;;
26050;SDS011;13825;53.496;10.020;2022-09-27T03:08:38;2.23;;;1.90;;
26050;SDS011;13825;53.496;10.020;2022-09-27T03:11:06;3.03;;;2.37;;
26050;SDS011;13825;53.496;10.020;2022-09-27T03:13:33;2.70;;;2.20;;
26050;SDS011;13825;53.496;10.020;2022-09-27T03:16:02;3.00;;;2.20;;
26050;SDS011;13825;53.496;10.020;2022-09-27T03:18:30;3.10;;;2.60;;
26050;SDS011;13825;53.496;10.020;2022-09-27T03:20:58;3.27;;;2.37;;
26050;SDS011;13825;53.496;10.020;2022-09-27T03:23:25;2.80;;;2.20;;
26050;SDS011;13825;53.496;10.020;2022-09-27T03:25:52;3.37;;;2.33;;
26050;SDS011;13825;53.496;10.020;2022-09-27T03:28:19;3.57;;;2.50;;
26050;SDS011;13825;53.496;10.020;2022-09-27T03:30:46;2.43;;;2.20;;
26050;SDS011;13825;53.496;10.020;2022-09-27T03:33:13;4.60;;;2.83;;
26050;SDS011;13825;53.496;10.020;2022-09-27T03:35:41;5.53;;;2.60;;
26050;SDS011;13825;53.496;10.020;2022-09-27T03:38:09;4.80;;;2.77;;
26050;SDS011;13825;53.496;10.020;2022-09-27T03:40:36;3.17;;;2.57;;
26050;SDS011;13825;53.496;10.020;2022-09-27T03:43:03;3.13;;;2.50;;
26050;SDS011;13825;53.496;10.020;2022-09-27T03:45:30;3.20;;;2.60;;
26050;SDS011;13825;53.496;10.020;2022-09-27T03:47:57;3.70;;;2.70;;
26050;SDS011;13825;53.496;10.020;2022-09-27T03:50:24;3.73;;;2.60;;
26050;SDS011;13825;53.496;10.020;2022-09-27T03:52:51;4.03;;;3.00;;
26050;SDS011;13825;53.496;10.020;2022-09-27T03:55:20;2.70;;;2.40;;
26050;SDS011;13825;53.496;10.020;2022-09-27T03:57:47;4.37;;;3.00;;
26050;SDS011;13825;53.496;10.020;2022-09-27T04:00:15;3.87;;;2.57;;
26050;SDS011;13825;53.496;10.020;2022-09-27T04:02:42;5.33;;;2.80;;
26050;SDS011;13825;53.496;10.020;2022-09-27T04:05:09;3.80;;;2.80;;
26050;SDS011;13825;53.496;10.020;2022-09-27T04:07:36;4.73;;;2.83;;
26050;SDS011;13825;53.496;10.020;2022-09-27T04:10:04;3.70;;;2.80;;
26050;SDS011;13825;53.496;10.020;2022-09-27T04:12:32;3.30;;;2.90;;
26050;SDS011;13825;53.496;10.020;2022-09-27T04:14:59;4.43;;;2.87;;
26050;SDS011;13825;53.496;10.020;2022-09-27T04:17:27;3.40;;;2.70;;
26050;SDS011;13825;53.496;10.020;2022-09-27T04:19:53;3.60;;;2.90;;
26050;SDS011;13825;53.496;10.020;2022-09-27T04:22:20;3.77;;;2.70;;
26050;SDS011;13825;53.496;10.020;2022-09-27T04:24:47;3.77;;;2.60;;
26050;SDS011;13825;53.496;10.020;2022-09-27T04:27:15;2.90;;;2.60;;
26050;SDS011;13825;53.496;10.020;2022-09-27T04:29:43;3.50;;;2.63;;
26050;SDS011;13825;53.496;10.020;2022-09-27T04:32:10;3.43;;;2.47;;
26050;SDS011;13825;53.496;10.020;2022-09-27T04:34:37;3.57;;;2.73;;
26050;SDS011;13825;53.496;10.020;2022-09-27T04:37:22;2.77;;;2.33;;
26050;SDS011;13825;53.496;10.020;2022-09-27T04:39:49;3.07;;;2.33;;
26050;SDS011;13825;53.496;10.020;2022-09-27T04:42:16;2.87;;;2.50;;
26050;SDS011;13825;53.496;10.020;2022-09-27T04:44:45;3.50;;;2.97;;
26050;SDS011;13825;53.496;10.020;2022-09-27T04:47:12;3.37;;;2.70;;
26050;SDS011;13825;53.496;10.020;2022-09-27T04:49:39;3.17;;;2.77;;
26050;SDS011;13825;53.496;10.020;2022-09-27T04:52:06;3.40;;;2.43;;
26050;SDS011;13825;53.496;10.020;2022-09-27T04:54:33;4.27;;;2.83;;
26050;SDS011;13825;53.496;10.020;2022-09-27T04:57:00;3.83;;;2.77;;
26050;SDS011;13825;53.496;10.020;2022-09-27T04:59:27;4.50;;;3.00;;
26050;SDS011;13825;53.496;10.020;2022-09-27T05:01:56;3.77;;;2.93;;
26050;SDS011;13825;53.496;10.020;2022-09-27T05:04:24;3.80;;;2.90;;
26050;SDS011;13825;53.496;10.020;2022-09-27T05:06:52;4.10;;;3.30;;
26050;SDS011;13825;53.496;10.020;2022-09-27T05:09:19;3.77;;;2.83;;
26050;SDS011;13825;53.496;10.020;2022-09-27T05:11:45;4.47;;;3.43;;
26050;SDS011;13825;53.496;10.020;2022-09-27T05:14:12;4.73;;;3.30;;
26050;SDS011;13825;53.496;10.020;2022-09-27T05:16:39;3.20;;;2.90;;
26050;SDS011;13825;53.496;10.020;2022-09-27T05:19:07;4.10;;;3.20;;
26050;SDS011;13825;53.496;10.020;2022-09-27T05:21:34;3.73;;;2.93;;
26050;SDS011;13825;53.496;10.020;2022-09-27T05:24:01;5.00;;;4.03;;
26050;SDS011;13825;53.496;10.020;2022-09-27T05:26:28;6.17;;;3.73;;
26050;SDS011;13825;53.496;10.020;2022-09-27T05:28:55;8.00;;;4.63;;
26050;SDS011;13825;53.496;10.020;2022-09-27T05:31:21;9.13;;;5.50;;
26050;SDS011;13825;53.496;10.020;2022-09-27T05:33:50;9.47;;;5.83;;
26050;SDS011;13825;53.496;10.020;2022-09-27T05:36:19;11.57;;;5.97;;
26050;SDS011;13825;53.496;10.020;2022-09-27T05:38:47;10.03;;;6.33;;
26050;SDS011;13825;53.496;10.020;2022-09-27T05:41:14;8.90;;;5.40;;
26050;SDS011;13825;53.496;10.020;2022-09-27T05:43:42;10.13;;;5.70;;
26050;SDS011;13825;53.496;10.020;2022-09-27T05:46:10;10.17;;;5.70;;
26050;SDS011;13825;53.496;10.020;2022-09-27T05:48:37;9.20;;;5.67;;
26050;SDS011;13825;53.496;10.020;2022-09-27T05:51:04;10.57;;;6.43;;
26050;SDS011;13825;53.496;10.020;2022-09-27T05:53:32;9.97;;;5.47;;
26050;SDS011;13825;53.496;10.020;2022-09-27T05:56:00;10.70;;;6.60;;
26050;SDS011;13825;53.496;10.020;2022-09-27T05:58:28;10.63;;;6.43;;
26050;SDS011;13825;53.496;10.020;2022-09-27T06:00:55;10.93;;;7.07;;
26050;SDS011;13825;53.496;10.020;2022-09-27T06:03:22;10.83;;;6.47;;
26050;SDS011;13825;53.496;10.020;2022-09-27T06:05:49;10.67;;;6.23;;
26050;SDS011;13825;53.496;10.020;2022-09-27T06:08:16;12.43;;;6.30;;
26050;SDS011;13825;53.496;10.020;2022-09-27T06:10:46;11.60;;;6.57;;
26050;SDS011;13825;53.496;10.020;2022-09-27T06:13:13;10.63;;;6.50;;
26050;SDS011;13825;53.496;10.020;2022-09-27T06:15:42;11.93;;;6.90;;
26050;SDS011;13825;53.496;10.020;2022-09-27T06:18:11;13.13;;;6.53;;
26050;SDS011;13825;53.496;10.020;2022-09-27T06:20:40;12.23;;;6.30;;
26050;SDS011;13825;53.496;10.020;2022-09-27T06:23:08;10.37;;;7.30;;
26050;SDS011;13825;53.496;10.020;2022-09-27T06:25:37;9.73;;;6.30;;
26050;SDS011;13825;53.496;10.020;2022-09-27T06:28:06;11.93;;;6.20;;
26050;SDS011;13825;53.496;10.020;2022-09-27T06:30:36;9.20;;;5.30;;
26050;SDS011;13825;53.496;10.020;2022-09-27T06:33:04;11.93;;;5.50;;
26050;SDS011;13825;53.496;10.020;2022-09-27T06:35:33;10.03;;;5.40;;
26050;SDS011;13825;53.496;10.020;2022-09-27T06:38:01;7.17;;;4.63;;
26050;SDS011;13825;53.496;10.020;2022-09-27T06:40:29;11.27;;;5.53;;
26050;SDS011;13825;53.496;10.020;2022-09-27T06:43:00;8.53;;;4.20;;
26050;SDS011;13825;53.496;10.020;2022-09-27T06:45:29;5.43;;;3.00;;
26050;SDS011;13825;53.496;10.020;2022-09-27T06:47:56;4.90;;;2.97;;
26050;SDS011;13825;53.496;10.020;2022-09-27T06:50:26;3.70;;;2.70;;
26050;SDS011;13825;53.496;10.020;2022-09-27T06:52:53;3.80;;;2.90;;
26050;SDS011;13825;53.496;10.020;2022-09-27T06:55:20;3.73;;;2.50;;
26050;SDS011;13825;53.496;10.020;2022-09-27T06:57:47;5.83;;;2.40;;
26050;SDS011;13825;53.496;10.020;2022-09-27T07:00:33;4.77;;;2.37;;
26050;SDS011;13825;53.496;10.020;2022-09-27T07:03:00;3.50;;;1.90;;
26050;SDS011;13825;53.496;10.020;2022-09-27T07:05:27;2.20;;;1.83;;
26050;SDS011;13825;53.496;10.020;2022-09-27T07:07:54;2.40;;;1.90;;
26050;SDS011;13825;53.496;10.020;2022-09-27T07:10:22;1.70;;;1.50;;
26050;SDS011;13825;53.496;10.020;2022-09-27T07:12:49;2.13;;;1.50;;
26050;SDS011;13825;53.496;10.020;2022-09-27T07:15:16;2.40;;;1.43;;
26050;SDS011;13825;53.496;10.020;2022-09-27T07:17:46;2.83;;;1.60;;
26050;SDS011;13825;53.496;10.020;2022-09-27T07:20:13;2.10;;;1.50;;
26050;SDS011;13825;53.496;10.020;2022-09-27T07:22:40;2.07;;;1.70;;
26050;SDS011;13825;53.496;10.020;2022-09-27T07:25:09;1.43;;;1.33;;
26050;SDS011;13825;53.496;10.020;2022-09-27T07:27:36;3.13;;;1.60;;
26050;SDS011;13825;53.496;10.020;2022-09-27T07:30:06;2.30;;;1.23;;
26050;SDS011;13825;53.496;10.020;2022-09-27T07:32:34;1.30;;;1.17;;
26050;SDS011;13825;53.496;10.020;2022-09-27T07:35:03;3.37;;;1.10;;
26050;SDS011;13825;53.496;10.020;2022-09-27T07:37:32;2.27;;;1.20;;
26050;SDS011;13825;53.496;10.020;2022-09-27T07:39:59;2.20;;;1.30;;
26050;SDS011;13825;53.496;10.020;2022-09-27T07:42:27;1.10;;;1.00;;
26050;SDS011;13825;53.496;10.020;2022-09-27T07:44:55;2.37;;;1.40;;
26050;SDS011;13825;53.496;10.020;2022-09-27T07:47:22;1.37;;;1.27;;
26050;SDS011;13825;53.496;10.020;2022-09-27T07:49:50;2.23;;;1.00;;
26050;SDS011;13825;53.496;10.020;2022-09-27T07:52:18;1.00;;;0.90;;
26050;SDS011;13825;53.496;10.020;2022-09-27T07:54:45;2.00;;;1.23;;
26050;SDS011;13825;53.496;10.020;2022-09-27T07:57:13;1.20;;;1.10;;
26050;SDS011;13825;53.496;10.020;2022-09-27T07:59:40;1.50;;;1.20;;
26050;SDS011;13825;53.496;10.020;2022-09-27T08:02:08;1.47;;;1.27;;
26050;SDS011;13825;53.496;10.020;2022-09-27T08:04:39;1.30;;;1.00;;
26050;SDS011;13825;53.496;10.020;2022-09-27T08:07:07;2.73;;;1.40;;
26050;SDS011;13825;53.496;10.020;2022-09-27T08:09:35;1.47;;;1.30;;
26050;SDS011;13825;53.496;10.020;2022-09-27T08:12:02;2.10;;;1.53;;
26050;SDS011;13825;53.496;10.020;2022-09-27T08:14:29;1.63;;;1.30;;
26050;SDS011;13825;53.496;10.020;2022-09-27T08:16:56;3.40;;;1.33;;
26050;SDS011;13825;53.496;10.020;2022-09-27T08:19:23;1.83;;;1.50;;
26050;SDS011;13825;53.496;10.020;2022-09-27T08:21:50;1.37;;;1.27;;
26050;SDS011;13825;53.496;10.020;2022-09-27T08:24:18;4.13;;;1.43;;
26050;SDS011;13825;53.496;10.020;2022-09-27T08:26:47;1.93;;;1.40;;
26050;SDS011;13825;53.496;10.020;2022-09-27T08:29:14;1.33;;;1.23;;
26050;SDS011;13825;53.496;10.020;2022-09-27T08:31:41;2.23;;;1.50;;
26050;SDS011;13825;53.496;10.020;2022-09-27T08:34:08;1.70;;;1.60;;
26050;SDS011;13825;53.496;10.020;2022-09-27T08:36:35;2.23;;;1.70;;
26050;SDS011;13825;53.496;10.020;2022-09-27T08:39:02;2.13;;;1.60;;
26050;SDS011;13825;53.496;10.020;2022-09-27T08:41:32;1.60;;;1.50;;
26050;SDS011;13825;53.496;10.020;2022-09-27T08:44:12;2.00;;;1.67;;
26050;SDS011;13825;53.496;10.020;2022-09-27T08:46:47;2.20;;;1.60;;
26050;SDS011;13825;53.496;10.020;2022-09-27T08:49:25;1.30;;;1.20;;
26050;SDS011;13825;53.496;10.020;2022-09-27T08:51:58;1.97;;;1.50;;
26050;SDS011;13825;53.496;10.020;2022-09-27T08:54:26;2.00;;;1.80;;
26050;SDS011;13825;53.496;10.020;2022-09-27T08:56:56;2.13;;;1.43;;
26050;SDS011;13825;53.496;10.020;2022-09-27T08:59:29;2.10;;;1.30;;
26050;SDS011;13825;53.496;10.020;2022-09-27T09:02:02;2.23;;;1.70;;
26050;SDS011;13825;53.496;10.020;2022-09-27T09:04:38;1.40;;;1.30;;
26050;SDS011;13825;53.496;10.020;2022-09-27T09:07:07;3.33;;;1.73;;
26050;SDS011;13825;53.496;10.020;2022-09-27T09:09:46;1.17;;;1.10;;
26050;SDS011;13825;53.496;10.020;2022-09-27T09:12:23;1.20;;;1.10;;
26050;SDS011;13825;53.496;10.020;2022-09-27T09:15:23;2.60;;;1.87;;
26050;SDS011;13825;53.496;10.020;2022-09-27T09:18:04;1.93;;;1.83;;
26050;SDS011;13825;53.496;10.020;2022-09-27T09:20:50;1.30;;;1.20;;
26050;SDS011;13825;53.496;10.020;2022-09-27T09:26:16;2.70;;;1.30;;
26050;SDS011;13825;53.496;10.020;2022-09-27T09:28:53;1.20;;;1.10;;
26050;SDS011;13825;53.496;10.020;2022-09-27T09:31:31;1.30;;;1.20;;
26050;SDS011;13825;53.496;10.020;2022-09-27T09:34:07;1.23;;;1.13;;
26050;SDS011;13825;53.496;10.020;2022-09-27T09:36:41;1.43;;;1.23;;
26050;SDS011;13825;53.496;10.020;2022-09-27T09:39:12;3.87;;;3.00;;
26050;SDS011;13825;53.496;10.020;2022-09-27T09:41:46;2.10;;;1.90;;
26050;SDS011;13825;53.496;10.020;2022-09-27T09:44:26;1.77;;;1.63;;
26050;SDS011;13825;53.496;10.020;2022-09-27T09:46:59;2.33;;;1.80;;
26050;SDS011;13825;53.496;10.020;2022-09-27T09:49:28;6.17;;;3.10;;
26050;SDS011;13825;53.496;10.020;2022-09-27T09:52:00;5.77;;;2.70;;
26050;SDS011;13825;53.496;10.020;2022-09-27T09:54:31;3.53;;;2.50;;
26050;SDS011;13825;53.496;10.020;2022-09-27T09:57:04;5.17;;;2.67;;
26050;SDS011;13825;53.496;10.020;2022-09-27T09:59:39;6.70;;;3.60;;
26050;SDS011;13825;53.496;10.020;2022-09-27T10:02:22;4.13;;;2.43;;
26050;SDS011;13825;53.496;10.020;2022-09-27T10:04:56;2.10;;;1.60;;
26050;SDS011;13825;53.496;10.020;2022-09-27T10:07:23;7.53;;;2.83;;
26050;SDS011;13825;53.496;10.020;2022-09-27T10:09:52;2.23;;;1.60;;
26050;SDS011;13825;53.496;10.020;2022-09-27T10:12:24;3.50;;;2.13;;
26050;SDS011;13825;53.496;10.020;2022-09-27T10:14:52;1.70;;;1.37;;
26050;SDS011;13825;53.496;10.020;2022-09-27T10:17:23;1.90;;;1.20;;
26050;SDS011;13825;53.496;10.020;2022-09-27T10:19:54;1.23;;;1.13;;
26050;SDS011;13825;53.496;10.020;2022-09-27T10:22:25;1.20;;;1.10;;
26050;SDS011;13825;53.496;10.020;2022-09-27T10:24:58;1.30;;;1.20;;
26050;SDS011;13825;53.496;10.020;2022-09-27T10:27:27;1.53;;;1.10;;
26050;SDS011;13825;53.496;10.020;2022-09-27T10:30:05;1.30;;;1.10;;
26050;SDS011;13825;53.496;10.020;2022-09-27T10:32:47;1.40;;;1.30;;
26050;SDS011;13825;53.496;10.020;2022-09-27T10:35:21;3.67;;;1.20;;
26050;SDS011;13825;53.496;10.020;2022-09-27T10:38:09;2.10;;;1.60;;
26050;SDS011;13825;53.496;10.020;2022-09-27T10:40:46;2.00;;;1.30;;
26050;SDS011;13825;53.496;10.020;2022-09-27T10:43:23;2.97;;;1.40;;
26050;SDS011;13825;53.496;10.020;2022-09-27T10:45:58;1.40;;;1.30;;
26050;SDS011;13825;53.496;10.020;2022-09-27T10:48:30;1.43;;;1.30;;
26050;SDS011;13825;53.496;10.020;2022-09-27T10:50:58;1.93;;;1.30;;
26050;SDS011;13825;53.496;10.020;2022-09-27T10:53:26;2.47;;;1.83;;
26050;SDS011;13825;53.496;10.020;2022-09-27T10:55:55;1.77;;;1.40;;
26050;SDS011;13825;53.496;10.020;2022-09-27T10:58:24;2.80;;;1.20;;
26050;SDS011;13825;53.496;10.020;2022-09-27T11:00:54;3.57;;;1.60;;
26050;SDS011;13825;53.496;10.020;2022-09-27T11:03:25;2.97;;;1.00;;
26050;SDS011;13825;53.496;10.020;2022-09-27T11:05:55;0.77;;;0.77;;
26050;SDS011;13825;53.496;10.020;2022-09-27T11:08:27;1.30;;;1.20;;
26050;SDS011;13825;53.496;10.020;2022-09-27T11:11:01;1.27;;;1.10;;
26050;SDS011;13825;53.496;10.020;2022-09-27T11:13:30;1.27;;;1.17;;
26050;SDS011;13825;53.496;10.020;2022-09-27T11:16:20;1.73;;;1.30;;
26050;SDS011;13825;53.496;10.020;2022-09-27T11:19:00;2.50;;;1.67;;
26050;SDS011;13825;53.496;10.020;2022-09-27T11:21:41;1.53;;;1.07;;
26050;SDS011;13825;53.496;10.020;2022-09-27T11:24:24;1.50;;;1.40;;
26050;SDS011;13825;53.496;10.020;2022-09-27T11:27:05;1.70;;;1.10;;
26050;SDS011;13825;53.496;10.020;2022-09-27T11:29:44;4.60;;;1.30;;
26050;SDS011;13825;53.496;10.020;2022-09-27T11:32:27;1.93;;;1.40;;
26050;SDS011;13825;53.496;10.020;2022-09-27T11:35:17;1.43;;;1.30;;
26050;SDS011;13825;53.496;10.020;2022-09-27T11:37:55;1.20;;;1.10;;
26050;SDS011;13825;53.496;10.020;2022-09-27T11:40:34;1.13;;;1.00;;
26050;SDS011;13825;53.496;10.020;2022-09-27T11:43:15;0.90;;;0.90;;
26050;SDS011;13825;53.496;10.020;2022-09-27T11:45:53;1.47;;;0.70;;
26050;SDS011;13825;53.496;10.020;2022-09-27T11:48:31;0.70;;;0.70;;
26050;SDS011;13825;53.496;10.020;2022-09-27T11:51:10;0.77;;;0.77;;
26050;SDS011;13825;53.496;10.020;2022-09-27T11:53:55;0.70;;;0.70;;
26050;SDS011;13825;53.496;10.020;2022-09-27T11:56:34;1.50;;;0.80;;
26050;SDS011;13825;53.496;10.020;2022-09-27T11:59:12;0.67;;;0.67;;
26050;SDS011;13825;53.496;10.020;2022-09-27T12:01:58;2.43;;;1.70;;
26050;SDS011;13825;53.496;10.020;2022-09-27T12:07:30;3.43;;;1.80;;
26050;SDS011;13825;53.496;10.020;2022-09-27T12:10:04;2.93;;;1.60;;
26050;SDS011;13825;53.496;10.020;2022-09-27T12:12:37;3.03;;;2.20;;
26050;SDS011;13825;53.496;10.020;2022-09-27T12:15:11;1.00;;;1.00;;
26050;SDS011;13825;53.496;10.020;2022-09-27T12:17:43;1.17;;;1.07;;
26050;SDS011;13825;53.496;10.020;2022-09-27T12:20:13;1.23;;;1.13;;
26050;SDS011;13825;53.496;10.020;2022-09-27T12:22:48;0.90;;;0.90;;
26050;SDS011;13825;53.496;10.020;2022-09-27T12:25:19;1.30;;;1.00;;
26050;SDS011;13825;53.496;10.020;2022-09-27T12:27:49;0.63;;;0.50;;
26050;SDS011;13825;53.496;10.020;2022-09-27T12:30:18;2.33;;;1.30;;
26050;SDS011;13825;53.496;10.020;2022-09-27T12:32:48;2.20;;;1.90;;
26050;SDS011;13825;53.496;10.020;2022-09-27T12:35:22;1.17;;;1.07;;
26050;SDS011;13825;53.496;10.020;2022-09-27T12:37:54;0.90;;;0.70;;
26050;SDS011;13825;53.496;10.020;2022-09-27T12:40:27;1.13;;;1.00;;
26050;SDS011;13825;53.496;10.020;2022-09-27T12:42:58;1.03;;;1.03;;
26050;SDS011;13825;53.496;10.020;2022-09-27T12:45:33;2.10;;;0.70;;
26050;SDS011;13825;53.496;10.020;2022-09-27T12:48:07;1.90;;;1.20;;
26050;SDS011;13825;53.496;10.020;2022-09-27T12:50:42;1.33;;;1.23;;
26050;SDS011;13825;53.496;10.020;2022-09-27T12:53:12;1.13;;;0.87;;
26050;SDS011;13825;53.496;10.020;2022-09-27T13:01:54;0.50;;;0.50;;
26050;SDS011;13825;53.496;10.020;2022-09-27T13:04:55;0.90;;;0.60;;
26050;SDS011;13825;53.496;10.020;2022-09-27T13:07:45;2.17;;;1.40;;
26050;SDS011;13825;53.496;10.020;2022-09-27T13:13:15;2.50;;;1.60;;
26050;SDS011;13825;53.496;10.020;2022-09-27T13:15:45;1.00;;;0.90;;
26050;SDS011;13825;53.496;10.020;2022-09-27T13:18:29;2.37;;;1.77;;
26050;SDS011;13825;53.496;10.020;2022-09-27T13:24:28;1.30;;;0.97;;
26050;SDS011;13825;53.496;10.020;2022-09-27T13:36:26;1.77;;;1.00;;
26050;SDS011;13825;53.496;10.020;2022-09-27T13:39:03;1.27;;;0.57;;
26050;SDS011;13825;53.496;10.020;2022-09-27T13:41:52;0.40;;;0.40;;
26050;SDS011;13825;53.496;10.020;2022-09-27T13:44:30;0.80;;;0.70;;
26050;SDS011;13825;53.496;10.020;2022-09-27T13:47:15;0.50;;;0.50;;
26050;SDS011;13825;53.496;10.020;2022-09-27T13:49:54;0.50;;;0.50;;
26050;SDS011;13825;53.496;10.020;2022-09-27T13:52:24;0.80;;;0.80;;
26050;SDS011;13825;53.496;10.020;2022-09-27T13:54:54;0.70;;;0.70;;
26050;SDS011;13825;53.496;10.020;2022-09-27T14:00:19;0.67;;;0.63;;
26050;SDS011;13825;53.496;10.020;2022-09-27T14:02:58;0.60;;;0.60;;
26050;SDS011;13825;53.496;10.020;2022-09-27T14:05:33;1.13;;;0.80;;
26050;SDS011;13825;53.496;10.020;2022-09-27T14:08:03;1.60;;;0.93;;
26050;SDS011;13825;53.496;10.020;2022-09-27T14:10:31;1.73;;;1.10;;
26050;SDS011;13825;53.496;10.020;2022-09-27T14:13:00;4.70;;;1.17;;
26050;SDS011;13825;53.496;10.020;2022-09-27T14:15:30;1.47;;;1.13;;
26050;SDS011;13825;53.496;10.020;2022-09-27T14:17:58;1.97;;;1.50;;
26050;SDS011;13825;53.496;10.020;2022-09-27T14:20:28;1.93;;;1.33;;
26050;SDS011;13825;53.496;10.020;2022-09-27T14:23:05;3.70;;;2.27;;
26050;SDS011;13825;53.496;10.020;2022-09-27T14:25:43;1.43;;;1.20;;
26050;SDS011;13825;53.496;10.020;2022-09-27T14:28:18;1.50;;;1.30;;
26050;SDS011;13825;53.496;10.020;2022-09-27T14:30:46;1.67;;;1.20;;
26050;SDS011;13825;53.496;10.020;2022-09-27T14:33:25;1.80;;;1.33;;
26050;SDS011;13825;53.496;10.020;2022-09-27T14:35:55;3.03;;;1.67;;
26050;SDS011;13825;53.496;10.020;2022-09-27T14:38:39;3.37;;;1.30;;
26050;SDS011;13825;53.496;10.020;2022-09-27T14:41:07;2.10;;;1.90;;
26050;SDS011;13825;53.496;10.020;2022-09-27T14:43:35;2.83;;;2.10;;
26050;SDS011;13825;53.496;10.020;2022-09-27T14:46:20;2.60;;;2.00;;
26050;SDS011;13825;53.496;10.020;2022-09-27T14:48:51;2.97;;;1.67;;
26050;SDS011;13825;53.496;10.020;2022-09-27T14:51:23;3.83;;;2.30;;
26050;SDS011;13825;53.496;10.020;2022-09-27T14:53:53;2.90;;;2.50;;
26050;SDS011;13825;53.496;10.020;2022-09-27T14:56:22;3.80;;;2.33;;
26050;SDS011;13825;53.496;10.020;2022-09-27T14:58:55;3.53;;;2.60;;
26050;SDS011;13825;53.496;10.020;2022-09-27T15:01:26;4.53;;;2.50;;
26050;SDS011;13825;53.496;10.020;2022-09-27T15:03:54;2.33;;;2.00;;
26050;SDS011;13825;53.496;10.020;2022-09-27T15:06:23;3.07;;;2.20;;
26050;SDS011;13825;53.496;10.020;2022-09-27T15:08:50;2.87;;;2.00;;
26050;SDS011;13825;53.496;10.020;2022-09-27T15:11:19;3.07;;;2.30;;
26050;SDS011;13825;53.496;10.020;2022-09-27T15:13:46;2.10;;;1.73;;
26050;SDS011;13825;53.496;10.020;2022-09-27T15:16:18;2.00;;;1.80;;
26050;SDS011;13825;53.496;10.020;2022-09-27T15:18:48;3.23;;;1.80;;
26050;SDS011;13825;53.496;10.020;2022-09-27T15:21:28;3.03;;;2.17;;
26050;SDS011;13825;53.496;10.020;2022-09-27T15:23:55;1.70;;;1.60;;
26050;SDS011;13825;53.496;10.020;2022-09-27T15:26:23;3.33;;;2.63;;
26050;SDS011;13825;53.496;10.020;2022-09-27T15:28:53;3.43;;;1.70;;
26050;SDS011;13825;53.496;10.020;2022-09-27T15:31:27;1.80;;;1.50;;
26050;SDS011;13825;53.496;10.020;2022-09-27T15:33:55;1.20;;;1.10;;